sensor_id;sensor_type;location;lat;lon;timestamp;P1;durP1;ratioP1;P2;durP2;ratioP2
50379;SDS011;37474;59.468;18.040;2023-04-07T00:01:22;4.43;;;2.20;;
50379;SDS011;37474;59.468;18.040;2023-04-07T00:03:50;4.18;;;2.10;;
50379;SDS011;37474;59.468;18.040;2023-04-07T00:06:21;2.45;;;2.15;;
50379;SDS011;37474;59.468;18.040;2023-04-07T00:08:52;6.40;;;2.40;;
50379;SDS011;37474;59.468;18.040;2023-04-07T00:11:20;2.77;;;2.20;;
50379;SDS011;37474;59.468;18.040;2023-04-07T00:13:47;3.60;;;2.57;;
50379;SDS011;37474;59.468;18.040;2023-04-07T00:16:17;4.63;;;2.33;;
50379;SDS011;37474;59.468;18.040;2023-04-07T00:18:45;2.80;;;2.38;;
50379;SDS011;37474;59.468;18.040;2023-04-07T00:21:15;3.47;;;2.88;;
50379;SDS011;37474;59.468;18.040;2023-04-07T00:23:45;3.30;;;2.70;;
50379;SDS011;37474;59.468;18.040;2023-04-07T00:26:16;3.60;;;2.88;;
50379;SDS011;37474;59.468;18.040;2023-04-07T00:28:46;2.87;;;2.57;;
50379;SDS011;37474;59.468;18.040;2023-04-07T00:31:14;3.83;;;3.10;;
50379;SDS011;37474;59.468;18.040;2023-04-07T00:33:44;4.07;;;2.70;;
50379;SDS011;37474;59.468;18.040;2023-04-07T00:36:16;3.40;;;2.50;;
50379;SDS011;37474;59.468;18.040;2023-04-07T00:38:44;3.23;;;2.60;;
50379;SDS011;37474;59.468;18.040;2023-04-07T00:41:14;3.70;;;2.80;;
50379;SDS011;37474;59.468;18.040;2023-04-07T00:43:46;3.63;;;3.00;;
50379;SDS011;37474;59.468;18.040;2023-04-07T00:46:16;3.95;;;2.75;;
50379;SDS011;37474;59.468;18.040;2023-04-07T00:48:48;4.17;;;2.70;;
50379;SDS011;37474;59.468;18.040;2023-04-07T00:51:19;3.90;;;2.63;;
50379;SDS011;37474;59.468;18.040;2023-04-07T00:53:49;3.63;;;2.73;;
50379;SDS011;37474;59.468;18.040;2023-04-07T00:56:21;3.60;;;2.70;;
50379;SDS011;37474;59.468;18.040;2023-04-07T00:58:49;3.87;;;2.90;;
50379;SDS011;37474;59.468;18.040;2023-04-07T01:01:21;5.10;;;2.70;;
50379;SDS011;37474;59.468;18.040;2023-04-07T01:03:53;4.23;;;2.90;;
50379;SDS011;37474;59.468;18.040;2023-04-07T01:06:36;3.30;;;2.60;;
50379;SDS011;37474;59.468;18.040;2023-04-07T01:09:09;3.20;;;2.47;;
50379;SDS011;37474;59.468;18.040;2023-04-07T01:11:50;3.37;;;2.63;;
50379;SDS011;37474;59.468;18.040;2023-04-07T01:14:25;3.20;;;2.53;;
50379;SDS011;37474;59.468;18.040;2023-04-07T01:17:05;3.00;;;2.30;;
50379;SDS011;37474;59.468;18.040;2023-04-07T01:19:35;3.17;;;2.50;;
50379;SDS011;37474;59.468;18.040;2023-04-07T01:22:05;2.60;;;2.40;;
50379;SDS011;37474;59.468;18.040;2023-04-07T01:24:45;4.27;;;2.97;;
50379;SDS011;37474;59.468;18.040;2023-04-07T01:27:33;2.90;;;2.47;;
50379;SDS011;37474;59.468;18.040;2023-04-07T01:30:12;3.00;;;2.20;;
50379;SDS011;37474;59.468;18.040;2023-04-07T01:32:46;4.33;;;2.97;;
50379;SDS011;37474;59.468;18.040;2023-04-07T01:35:20;3.80;;;2.60;;
50379;SDS011;37474;59.468;18.040;2023-04-07T01:37:51;3.47;;;2.80;;
50379;SDS011;37474;59.468;18.040;2023-04-07T01:40:20;4.63;;;2.43;;
50379;SDS011;37474;59.468;18.040;2023-04-07T01:42:53;4.27;;;2.83;;
50379;SDS011;37474;59.468;18.040;2023-04-07T01:45:24;2.77;;;2.37;;
50379;SDS011;37474;59.468;18.040;2023-04-07T01:47:56;3.43;;;2.70;;
50379;SDS011;37474;59.468;18.040;2023-04-07T01:50:24;4.83;;;2.73;;
50379;SDS011;37474;59.468;18.040;2023-04-07T01:52:53;3.43;;;2.70;;
50379;SDS011;37474;59.468;18.040;2023-04-07T01:55:25;3.93;;;2.80;;
50379;SDS011;37474;59.468;18.040;2023-04-07T01:57:53;3.95;;;2.85;;
50379;SDS011;37474;59.468;18.040;2023-04-07T02:00:21;4.23;;;3.03;;
50379;SDS011;37474;59.468;18.040;2023-04-07T02:02:54;4.13;;;2.83;;
50379;SDS011;37474;59.468;18.040;2023-04-07T02:05:31;4.10;;;3.03;;
50379;SDS011;37474;59.468;18.040;2023-04-07T02:08:07;3.20;;;2.73;;
50379;SDS011;37474;59.468;18.040;2023-04-07T02:10:37;4.27;;;2.90;;
50379;SDS011;37474;59.468;18.040;2023-04-07T02:13:07;2.90;;;2.40;;
50379;SDS011;37474;59.468;18.040;2023-04-07T02:15:39;3.60;;;2.60;;
50379;SDS011;37474;59.468;18.040;2023-04-07T02:18:14;3.97;;;2.80;;
50379;SDS011;37474;59.468;18.040;2023-04-07T02:20:44;5.67;;;3.20;;
50379;SDS011;37474;59.468;18.040;2023-04-07T02:23:17;3.83;;;3.03;;
50379;SDS011;37474;59.468;18.040;2023-04-07T02:28:17;4.03;;;3.03;;
50379;SDS011;37474;59.468;18.040;2023-04-07T02:30:47;5.87;;;3.80;;
50379;SDS011;37474;59.468;18.040;2023-04-07T02:33:18;5.60;;;3.63;;
50379;SDS011;37474;59.468;18.040;2023-04-07T02:35:48;5.90;;;3.93;;
50379;SDS011;37474;59.468;18.040;2023-04-07T02:38:17;7.90;;;4.05;;
50379;SDS011;37474;59.468;18.040;2023-04-07T02:40:47;5.80;;;3.80;;
50379;SDS011;37474;59.468;18.040;2023-04-07T02:43:15;5.90;;;4.15;;
50379;SDS011;37474;59.468;18.040;2023-04-07T02:45:48;6.47;;;4.17;;
50379;SDS011;37474;59.468;18.040;2023-04-07T02:48:18;6.07;;;4.43;;
50379;SDS011;37474;59.468;18.040;2023-04-07T02:50:46;6.40;;;4.20;;
50379;SDS011;37474;59.468;18.040;2023-04-07T02:53:16;6.32;;;4.50;;
50379;SDS011;37474;59.468;18.040;2023-04-07T02:55:46;7.00;;;4.67;;
50379;SDS011;37474;59.468;18.040;2023-04-07T02:58:14;5.60;;;3.83;;
50379;SDS011;37474;59.468;18.040;2023-04-07T03:00:43;5.40;;;3.80;;
50379;SDS011;37474;59.468;18.040;2023-04-07T03:03:13;6.80;;;4.10;;
50379;SDS011;37474;59.468;18.040;2023-04-07T03:08:12;8.03;;;4.77;;
50379;SDS011;37474;59.468;18.040;2023-04-07T03:10:42;9.40;;;4.77;;
50379;SDS011;37474;59.468;18.040;2023-04-07T03:13:10;9.07;;;5.50;;
50379;SDS011;37474;59.468;18.040;2023-04-07T03:15:45;8.70;;;5.50;;
50379;SDS011;37474;59.468;18.040;2023-04-07T03:18:13;8.65;;;5.53;;
50379;SDS011;37474;59.468;18.040;2023-04-07T03:20:42;7.77;;;5.30;;
50379;SDS011;37474;59.468;18.040;2023-04-07T03:23:14;8.83;;;5.97;;
50379;SDS011;37474;59.468;18.040;2023-04-07T03:25:42;8.50;;;5.63;;
50379;SDS011;37474;59.468;18.040;2023-04-07T03:28:12;9.43;;;6.30;;
50379;SDS011;37474;59.468;18.040;2023-04-07T03:30:44;8.48;;;5.38;;
50379;SDS011;37474;59.468;18.040;2023-04-07T03:33:12;8.13;;;5.55;;
50379;SDS011;37474;59.468;18.040;2023-04-07T03:35:42;8.23;;;5.20;;
50379;SDS011;37474;59.468;18.040;2023-04-07T03:38:14;9.07;;;5.70;;
50379;SDS011;37474;59.468;18.040;2023-04-07T03:40:42;9.05;;;5.90;;
50379;SDS011;37474;59.468;18.040;2023-04-07T03:43:09;9.20;;;5.97;;
50379;SDS011;37474;59.468;18.040;2023-04-07T03:45:44;9.17;;;5.70;;
50379;SDS011;37474;59.468;18.040;2023-04-07T03:50:40;9.13;;;5.80;;
50379;SDS011;37474;59.468;18.040;2023-04-07T03:53:14;9.83;;;6.33;;
50379;SDS011;37474;59.468;18.040;2023-04-07T03:55:42;11.90;;;6.75;;
50379;SDS011;37474;59.468;18.040;2023-04-07T03:58:10;10.80;;;6.17;;
50379;SDS011;37474;59.468;18.040;2023-04-07T04:00:40;9.40;;;6.40;;
50379;SDS011;37474;59.468;18.040;2023-04-07T04:03:08;13.25;;;7.85;;
50379;SDS011;37474;59.468;18.040;2023-04-07T04:05:37;11.63;;;6.93;;
50379;SDS011;37474;59.468;18.040;2023-04-07T04:10:38;10.93;;;6.83;;
50379;SDS011;37474;59.468;18.040;2023-04-07T04:13:06;12.57;;;7.87;;
50379;SDS011;37474;59.468;18.040;2023-04-07T04:15:38;15.63;;;8.60;;
50379;SDS011;37474;59.468;18.040;2023-04-07T04:18:06;11.20;;;6.88;;
50379;SDS011;37474;59.468;18.040;2023-04-07T04:20:34;13.30;;;7.80;;
50379;SDS011;37474;59.468;18.040;2023-04-07T04:23:06;14.33;;;8.70;;
50379;SDS011;37474;59.468;18.040;2023-04-07T04:25:35;15.23;;;8.50;;
50379;SDS011;37474;59.468;18.040;2023-04-07T04:28:10;12.17;;;7.33;;
50379;SDS011;37474;59.468;18.040;2023-04-07T04:30:38;12.57;;;7.38;;
50379;SDS011;37474;59.468;18.040;2023-04-07T04:33:05;15.67;;;7.80;;
50379;SDS011;37474;59.468;18.040;2023-04-07T04:35:39;13.05;;;7.93;;
50379;SDS011;37474;59.468;18.040;2023-04-07T04:38:07;12.73;;;8.07;;
50379;SDS011;37474;59.468;18.040;2023-04-07T04:40:36;13.57;;;8.30;;
50379;SDS011;37474;59.468;18.040;2023-04-07T04:43:07;13.77;;;7.97;;
50379;SDS011;37474;59.468;18.040;2023-04-07T04:45:35;11.88;;;7.47;;
50379;SDS011;37474;59.468;18.040;2023-04-07T04:48:05;11.60;;;6.90;;
50379;SDS011;37474;59.468;18.040;2023-04-07T04:50:36;10.57;;;6.77;;
50379;SDS011;37474;59.468;18.040;2023-04-07T04:53:04;12.03;;;7.43;;
50379;SDS011;37474;59.468;18.040;2023-04-07T04:55:34;11.17;;;7.23;;
50379;SDS011;37474;59.468;18.040;2023-04-07T04:58:05;10.27;;;6.53;;
50379;SDS011;37474;59.468;18.040;2023-04-07T05:00:33;8.97;;;5.73;;
50379;SDS011;37474;59.468;18.040;2023-04-07T05:03:03;10.20;;;5.90;;
50379;SDS011;37474;59.468;18.040;2023-04-07T05:05:33;9.13;;;5.23;;
50379;SDS011;37474;59.468;18.040;2023-04-07T05:08:01;7.60;;;5.20;;
50379;SDS011;37474;59.468;18.040;2023-04-07T05:10:31;8.03;;;4.83;;
50379;SDS011;37474;59.468;18.040;2023-04-07T05:13:02;7.70;;;4.97;;
50379;SDS011;37474;59.468;18.040;2023-04-07T05:15:30;7.30;;;4.50;;
50379;SDS011;37474;59.468;18.040;2023-04-07T05:18:00;7.33;;;5.07;;
50379;SDS011;37474;59.468;18.040;2023-04-07T05:20:31;7.13;;;4.87;;
50379;SDS011;37474;59.468;18.040;2023-04-07T05:22:58;6.93;;;4.47;;
50379;SDS011;37474;59.468;18.040;2023-04-07T05:25:28;9.20;;;4.73;;
50379;SDS011;37474;59.468;18.040;2023-04-07T05:27:58;5.90;;;4.20;;
50379;SDS011;37474;59.468;18.040;2023-04-07T05:30:27;5.67;;;3.60;;
50379;SDS011;37474;59.468;18.040;2023-04-07T05:32:57;7.03;;;3.73;;
50379;SDS011;37474;59.468;18.040;2023-04-07T05:35:25;5.30;;;3.63;;
50379;SDS011;37474;59.468;18.040;2023-04-07T05:37:53;4.33;;;3.27;;
50379;SDS011;37474;59.468;18.040;2023-04-07T05:40:23;4.67;;;3.40;;
50379;SDS011;37474;59.468;18.040;2023-04-07T05:42:53;3.80;;;2.87;;
50379;SDS011;37474;59.468;18.040;2023-04-07T05:45:21;6.10;;;3.30;;
50379;SDS011;37474;59.468;18.040;2023-04-07T05:47:52;3.70;;;2.80;;
50379;SDS011;37474;59.468;18.040;2023-04-07T05:50:21;5.23;;;3.67;;
50379;SDS011;37474;59.468;18.040;2023-04-07T05:52:49;14.97;;;10.30;;
50379;SDS011;37474;59.468;18.040;2023-04-07T05:55:17;3.60;;;2.77;;
50379;SDS011;37474;59.468;18.040;2023-04-07T05:57:47;5.18;;;3.40;;
50379;SDS011;37474;59.468;18.040;2023-04-07T06:00:15;3.53;;;2.70;;
50379;SDS011;37474;59.468;18.040;2023-04-07T06:02:46;3.83;;;2.77;;
50379;SDS011;37474;59.468;18.040;2023-04-07T06:05:18;5.03;;;3.90;;
50379;SDS011;37474;59.468;18.040;2023-04-07T06:07:46;3.47;;;2.50;;
50379;SDS011;37474;59.468;18.040;2023-04-07T06:10:16;3.47;;;2.33;;
50379;SDS011;37474;59.468;18.040;2023-04-07T06:12:46;3.33;;;2.10;;
50379;SDS011;37474;59.468;18.040;2023-04-07T06:15:14;2.53;;;2.03;;
50379;SDS011;37474;59.468;18.040;2023-04-07T06:17:42;3.83;;;1.90;;
50379;SDS011;37474;59.468;18.040;2023-04-07T06:20:13;2.70;;;2.00;;
50379;SDS011;37474;59.468;18.040;2023-04-07T06:22:49;2.40;;;1.90;;
50379;SDS011;37474;59.468;18.040;2023-04-07T06:25:16;2.65;;;1.90;;
50379;SDS011;37474;59.468;18.040;2023-04-07T06:27:44;2.07;;;1.60;;
50379;SDS011;37474;59.468;18.040;2023-04-07T06:30:13;2.70;;;2.13;;
50379;SDS011;37474;59.468;18.040;2023-04-07T06:32:41;2.57;;;1.90;;
50379;SDS011;37474;59.468;18.040;2023-04-07T06:35:09;3.23;;;1.80;;
50379;SDS011;37474;59.468;18.040;2023-04-07T06:37:38;2.17;;;1.70;;
50379;SDS011;37474;59.468;18.040;2023-04-07T06:40:08;2.30;;;1.63;;
50379;SDS011;37474;59.468;18.040;2023-04-07T06:42:38;2.00;;;1.70;;
50379;SDS011;37474;59.468;18.040;2023-04-07T06:45:07;2.63;;;1.95;;
50379;SDS011;37474;59.468;18.040;2023-04-07T06:47:37;2.20;;;1.70;;
50379;SDS011;37474;59.468;18.040;2023-04-07T06:50:08;2.37;;;1.67;;
50379;SDS011;37474;59.468;18.040;2023-04-07T06:55:07;2.30;;;1.60;;
50379;SDS011;37474;59.468;18.040;2023-04-07T07:00:06;2.45;;;1.75;;
50379;SDS011;37474;59.468;18.040;2023-04-07T07:02:37;2.00;;;1.40;;
50379;SDS011;37474;59.468;18.040;2023-04-07T07:05:08;2.10;;;1.43;;
50379;SDS011;37474;59.468;18.040;2023-04-07T07:07:36;1.70;;;1.30;;
50379;SDS011;37474;59.468;18.040;2023-04-07T07:10:10;2.80;;;1.70;;
50379;SDS011;37474;59.468;18.040;2023-04-07T07:12:38;1.90;;;1.40;;
50379;SDS011;37474;59.468;18.040;2023-04-07T07:15:06;1.87;;;1.10;;
50379;SDS011;37474;59.468;18.040;2023-04-07T07:17:38;1.93;;;1.40;;
50379;SDS011;37474;59.468;18.040;2023-04-07T07:20:07;1.60;;;1.30;;
50379;SDS011;37474;59.468;18.040;2023-04-07T07:22:35;1.47;;;1.10;;
50379;SDS011;37474;59.468;18.040;2023-04-07T07:25:03;1.30;;;1.10;;
50379;SDS011;37474;59.468;18.040;2023-04-07T07:27:33;1.20;;;1.10;;
50379;SDS011;37474;59.468;18.040;2023-04-07T07:30:04;1.57;;;1.00;;
50379;SDS011;37474;59.468;18.040;2023-04-07T07:32:33;1.50;;;1.10;;
50379;SDS011;37474;59.468;18.040;2023-04-07T07:35:01;1.80;;;1.30;;
50379;SDS011;37474;59.468;18.040;2023-04-07T07:37:28;1.57;;;1.20;;
50379;SDS011;37474;59.468;18.040;2023-04-07T07:39:57;1.60;;;1.20;;
50379;SDS011;37474;59.468;18.040;2023-04-07T07:42:24;1.50;;;1.20;;
50379;SDS011;37474;59.468;18.040;2023-04-07T07:44:55;1.47;;;1.00;;
50379;SDS011;37474;59.468;18.040;2023-04-07T07:47:25;2.60;;;1.90;;
50379;SDS011;37474;59.468;18.040;2023-04-07T07:49:53;1.30;;;1.20;;
50379;SDS011;37474;59.468;18.040;2023-04-07T07:52:21;2.00;;;1.20;;
50379;SDS011;37474;59.468;18.040;2023-04-07T07:54:49;1.47;;;1.20;;
50379;SDS011;37474;59.468;18.040;2023-04-07T07:57:17;1.53;;;1.00;;
50379;SDS011;37474;59.468;18.040;2023-04-07T07:59:45;1.43;;;1.20;;
50379;SDS011;37474;59.468;18.040;2023-04-07T08:02:14;1.77;;;1.03;;
50379;SDS011;37474;59.468;18.040;2023-04-07T08:04:42;1.93;;;1.10;;
50379;SDS011;37474;59.468;18.040;2023-04-07T08:07:10;1.43;;;1.23;;
50379;SDS011;37474;59.468;18.040;2023-04-07T08:09:38;1.43;;;1.10;;
50379;SDS011;37474;59.468;18.040;2023-04-07T08:12:06;2.30;;;1.20;;
50379;SDS011;37474;59.468;18.040;2023-04-07T08:14:34;1.67;;;1.13;;
50379;SDS011;37474;59.468;18.040;2023-04-07T08:17:02;1.40;;;1.10;;
50379;SDS011;37474;59.468;18.040;2023-04-07T08:19:31;1.57;;;1.30;;
50379;SDS011;37474;59.468;18.040;2023-04-07T08:22:01;1.23;;;1.03;;
50379;SDS011;37474;59.468;18.040;2023-04-07T08:24:31;1.60;;;1.30;;
50379;SDS011;37474;59.468;18.040;2023-04-07T08:26:58;1.40;;;1.30;;
50379;SDS011;37474;59.468;18.040;2023-04-07T08:31:59;2.33;;;1.60;;
50379;SDS011;37474;59.468;18.040;2023-04-07T08:34:27;1.70;;;1.40;;
50379;SDS011;37474;59.468;18.040;2023-04-07T08:36:58;1.40;;;1.20;;
50379;SDS011;37474;59.468;18.040;2023-04-07T08:39:28;1.30;;;1.20;;
50379;SDS011;37474;59.468;18.040;2023-04-07T08:41:56;1.73;;;1.27;;
50379;SDS011;37474;59.468;18.040;2023-04-07T08:44:26;1.13;;;1.03;;
50379;SDS011;37474;59.468;18.040;2023-04-07T08:46:57;1.30;;;1.20;;
50379;SDS011;37474;59.468;18.040;2023-04-07T08:49:29;1.40;;;1.30;;
50379;SDS011;37474;59.468;18.040;2023-04-07T08:52:02;1.30;;;1.20;;
50379;SDS011;37474;59.468;18.040;2023-04-07T08:54:37;1.90;;;1.37;;
50379;SDS011;37474;59.468;18.040;2023-04-07T08:57:05;1.40;;;1.20;;
50379;SDS011;37474;59.468;18.040;2023-04-07T08:59:34;1.30;;;1.20;;
50379;SDS011;37474;59.468;18.040;2023-04-07T09:02:05;1.40;;;1.07;;
50379;SDS011;37474;59.468;18.040;2023-04-07T09:04:35;1.20;;;1.10;;
50379;SDS011;37474;59.468;18.040;2023-04-07T09:07:04;1.10;;;1.03;;
50379;SDS011;37474;59.468;18.040;2023-04-07T09:09:33;1.20;;;1.10;;
50379;SDS011;37474;59.468;18.040;2023-04-07T09:12:01;3.20;;;1.30;;
50379;SDS011;37474;59.468;18.040;2023-04-07T09:14:29;2.73;;;1.87;;
50379;SDS011;37474;59.468;18.040;2023-04-07T09:16:57;1.40;;;1.30;;
50379;SDS011;37474;59.468;18.040;2023-04-07T09:19:26;1.10;;;1.00;;
50379;SDS011;37474;59.468;18.040;2023-04-07T09:21:56;1.50;;;1.40;;
50379;SDS011;37474;59.468;18.040;2023-04-07T09:24:28;1.55;;;1.00;;
50379;SDS011;37474;59.468;18.040;2023-04-07T09:27:10;1.63;;;0.93;;
50379;SDS011;37474;59.468;18.040;2023-04-07T09:29:43;1.03;;;0.90;;
50379;SDS011;37474;59.468;18.040;2023-04-07T09:32:11;1.17;;;1.07;;
50379;SDS011;37474;59.468;18.040;2023-04-07T09:34:40;1.20;;;1.07;;
50379;SDS011;37474;59.468;18.040;2023-04-07T09:37:10;1.20;;;1.10;;
50379;SDS011;37474;59.468;18.040;2023-04-07T09:39:51;1.07;;;1.00;;
50379;SDS011;37474;59.468;18.040;2023-04-07T09:42:22;1.27;;;1.17;;
50379;SDS011;37474;59.468;18.040;2023-04-07T09:44:53;1.20;;;1.10;;
50379;SDS011;37474;59.468;18.040;2023-04-07T09:47:24;1.30;;;1.20;;
50379;SDS011;37474;59.468;18.040;2023-04-07T09:49:57;1.30;;;1.20;;
50379;SDS011;37474;59.468;18.040;2023-04-07T09:52:47;1.20;;;1.00;;
50379;SDS011;37474;59.468;18.040;2023-04-07T09:55:20;1.37;;;1.27;;
50379;SDS011;37474;59.468;18.040;2023-04-07T09:57:51;0.70;;;0.70;;
50379;SDS011;37474;59.468;18.040;2023-04-07T10:00:23;1.60;;;1.00;;
50379;SDS011;37474;59.468;18.040;2023-04-07T10:02:51;2.30;;;1.70;;
50379;SDS011;37474;59.468;18.040;2023-04-07T10:05:21;1.67;;;1.30;;
50379;SDS011;37474;59.468;18.040;2023-04-07T10:07:52;1.80;;;1.30;;
50379;SDS011;37474;59.468;18.040;2023-04-07T10:10:27;1.67;;;1.30;;
50379;SDS011;37474;59.468;18.040;2023-04-07T10:12:58;1.80;;;1.50;;
50379;SDS011;37474;59.468;18.040;2023-04-07T10:15:26;1.10;;;1.00;;
50379;SDS011;37474;59.468;18.040;2023-04-07T10:17:54;1.20;;;1.10;;
50379;SDS011;37474;59.468;18.040;2023-04-07T10:20:23;0.80;;;0.80;;
50379;SDS011;37474;59.468;18.040;2023-04-07T10:22:51;1.20;;;1.10;;
50379;SDS011;37474;59.468;18.040;2023-04-07T10:25:25;1.10;;;1.00;;
50379;SDS011;37474;59.468;18.040;2023-04-07T10:27:55;1.37;;;1.17;;
50379;SDS011;37474;59.468;18.040;2023-04-07T10:30:29;1.33;;;1.20;;
50379;SDS011;37474;59.468;18.040;2023-04-07T10:32:59;1.40;;;1.30;;
50379;SDS011;37474;59.468;18.040;2023-04-07T10:35:27;1.83;;;1.43;;
50379;SDS011;37474;59.468;18.040;2023-04-07T10:38:10;1.40;;;1.27;;
50379;SDS011;37474;59.468;18.040;2023-04-07T10:40:46;2.22;;;1.27;;
50379;SDS011;37474;59.468;18.040;2023-04-07T10:43:35;2.07;;;1.23;;
50379;SDS011;37474;59.468;18.040;2023-04-07T10:46:03;1.40;;;1.30;;
50379;SDS011;37474;59.468;18.040;2023-04-07T10:48:31;1.40;;;1.20;;
50379;SDS011;37474;59.468;18.040;2023-04-07T10:51:12;1.87;;;1.20;;
50379;SDS011;37474;59.468;18.040;2023-04-07T10:57:05;1.47;;;1.10;;
50379;SDS011;37474;59.468;18.040;2023-04-07T10:59:38;1.30;;;1.20;;
50379;SDS011;37474;59.468;18.040;2023-04-07T11:05:01;1.23;;;1.13;;
50379;SDS011;37474;59.468;18.040;2023-04-07T11:07:43;1.57;;;1.10;;
50379;SDS011;37474;59.468;18.040;2023-04-07T11:10:15;1.40;;;1.30;;
50379;SDS011;37474;59.468;18.040;2023-04-07T11:12:57;3.90;;;1.40;;
50379;SDS011;37474;59.468;18.040;2023-04-07T11:15:28;1.70;;;1.30;;
50379;SDS011;37474;59.468;18.040;2023-04-07T11:18:06;1.90;;;1.47;;
50379;SDS011;37474;59.468;18.040;2023-04-07T11:20:46;2.37;;;1.37;;
50379;SDS011;37474;59.468;18.040;2023-04-07T11:23:16;2.40;;;1.73;;
50379;SDS011;37474;59.468;18.040;2023-04-07T11:25:47;1.80;;;1.40;;
50379;SDS011;37474;59.468;18.040;2023-04-07T11:28:17;2.83;;;1.70;;
50379;SDS011;37474;59.468;18.040;2023-04-07T11:30:46;2.30;;;1.63;;
50379;SDS011;37474;59.468;18.040;2023-04-07T11:33:17;2.50;;;1.57;;
50379;SDS011;37474;59.468;18.040;2023-04-07T11:35:49;2.13;;;1.77;;
50379;SDS011;37474;59.468;18.040;2023-04-07T11:38:21;2.77;;;1.80;;
50379;SDS011;37474;59.468;18.040;2023-04-07T11:40:50;2.60;;;1.80;;
50379;SDS011;37474;59.468;18.040;2023-04-07T11:43:20;2.10;;;1.87;;
50379;SDS011;37474;59.468;18.040;2023-04-07T11:46:05;2.80;;;1.90;;
50379;SDS011;37474;59.468;18.040;2023-04-07T11:48:34;3.23;;;2.17;;
50379;SDS011;37474;59.468;18.040;2023-04-07T11:51:03;3.50;;;1.90;;
50379;SDS011;37474;59.468;18.040;2023-04-07T11:53:35;2.33;;;1.90;;
50379;SDS011;37474;59.468;18.040;2023-04-07T11:56:06;5.30;;;2.10;;
50379;SDS011;37474;59.468;18.040;2023-04-07T11:58:45;2.92;;;1.90;;
50379;SDS011;37474;59.468;18.040;2023-04-07T12:01:15;2.38;;;1.98;;
50379;SDS011;37474;59.468;18.040;2023-04-07T12:03:54;2.43;;;1.77;;
50379;SDS011;37474;59.468;18.040;2023-04-07T12:06:26;2.27;;;2.00;;
50379;SDS011;37474;59.468;18.040;2023-04-07T12:08:57;2.93;;;2.27;;
50379;SDS011;37474;59.468;18.040;2023-04-07T12:11:25;2.45;;;2.03;;
50379;SDS011;37474;59.468;18.040;2023-04-07T12:13:59;3.15;;;2.00;;
50379;SDS011;37474;59.468;18.040;2023-04-07T12:16:30;1.93;;;1.70;;
50379;SDS011;37474;59.468;18.040;2023-04-07T12:19:02;1.77;;;1.60;;
50379;SDS011;37474;59.468;18.040;2023-04-07T12:21:30;2.45;;;1.60;;
50379;SDS011;37474;59.468;18.040;2023-04-07T12:23:57;1.93;;;1.50;;
50379;SDS011;37474;59.468;18.040;2023-04-07T12:26:30;2.50;;;1.70;;
50379;SDS011;37474;59.468;18.040;2023-04-07T12:29:01;3.03;;;1.67;;
50379;SDS011;37474;59.468;18.040;2023-04-07T12:31:32;3.90;;;2.03;;
50379;SDS011;37474;59.468;18.040;2023-04-07T12:34:01;3.83;;;1.87;;
50379;SDS011;37474;59.468;18.040;2023-04-07T12:36:31;3.80;;;2.40;;
50379;SDS011;37474;59.468;18.040;2023-04-07T12:39:02;4.05;;;2.25;;
50379;SDS011;37474;59.468;18.040;2023-04-07T12:41:30;1.93;;;1.63;;
50379;SDS011;37474;59.468;18.040;2023-04-07T12:44:01;4.78;;;1.70;;
50379;SDS011;37474;59.468;18.040;2023-04-07T12:46:29;3.67;;;2.23;;
50379;SDS011;37474;59.468;18.040;2023-04-07T12:48:57;3.90;;;2.50;;
50379;SDS011;37474;59.468;18.040;2023-04-07T12:51:25;4.20;;;2.60;;
50379;SDS011;37474;59.468;18.040;2023-04-07T12:53:53;4.47;;;2.80;;
50379;SDS011;37474;59.468;18.040;2023-04-07T12:56:21;3.70;;;2.00;;
50379;SDS011;37474;59.468;18.040;2023-04-07T12:58:53;2.72;;;1.75;;
50379;SDS011;37474;59.468;18.040;2023-04-07T13:01:24;2.47;;;1.73;;
50379;SDS011;37474;59.468;18.040;2023-04-07T13:03:53;4.90;;;2.15;;
50379;SDS011;37474;59.468;18.040;2023-04-07T13:06:21;2.57;;;2.00;;
50379;SDS011;37474;59.468;18.040;2023-04-07T13:08:52;3.03;;;2.40;;
50379;SDS011;37474;59.468;18.040;2023-04-07T13:11:22;3.20;;;1.90;;
50379;SDS011;37474;59.468;18.040;2023-04-07T13:13:52;3.25;;;2.30;;
50379;SDS011;37474;59.468;18.040;2023-04-07T13:16:26;4.83;;;2.00;;
50379;SDS011;37474;59.468;18.040;2023-04-07T13:18:54;1.87;;;1.40;;
50379;SDS011;37474;59.468;18.040;2023-04-07T13:21:22;2.23;;;1.53;;
50379;SDS011;37474;59.468;18.040;2023-04-07T13:24:12;4.60;;;1.90;;
50379;SDS011;37474;59.468;18.040;2023-04-07T13:26:40;2.37;;;1.80;;
50379;SDS011;37474;59.468;18.040;2023-04-07T13:29:09;3.35;;;1.63;;
50379;SDS011;37474;59.468;18.040;2023-04-07T13:31:40;3.27;;;1.50;;
50379;SDS011;37474;59.468;18.040;2023-04-07T13:34:08;2.63;;;1.60;;
50379;SDS011;37474;59.468;18.040;2023-04-07T13:36:38;1.95;;;1.70;;
50379;SDS011;37474;59.468;18.040;2023-04-07T13:39:08;3.40;;;1.60;;
50379;SDS011;37474;59.468;18.040;2023-04-07T13:41:37;2.80;;;1.67;;
50379;SDS011;37474;59.468;18.040;2023-04-07T13:44:07;3.63;;;1.40;;
50379;SDS011;37474;59.468;18.040;2023-04-07T13:46:34;4.23;;;1.73;;
50379;SDS011;37474;59.468;18.040;2023-04-07T13:49:03;2.30;;;1.60;;
50379;SDS011;37474;59.468;18.040;2023-04-07T13:51:33;2.10;;;1.50;;
50379;SDS011;37474;59.468;18.040;2023-04-07T13:54:01;3.40;;;1.30;;
50379;SDS011;37474;59.468;18.040;2023-04-07T13:56:29;3.40;;;1.50;;
50379;SDS011;37474;59.468;18.040;2023-04-07T13:58:57;2.53;;;1.40;;
50379;SDS011;37474;59.468;18.040;2023-04-07T14:01:27;5.23;;;2.83;;
50379;SDS011;37474;59.468;18.040;2023-04-07T14:03:55;3.22;;;1.75;;
50379;SDS011;37474;59.468;18.040;2023-04-07T14:06:27;3.37;;;1.70;;
50379;SDS011;37474;59.468;18.040;2023-04-07T14:08:56;2.70;;;1.40;;
50379;SDS011;37474;59.468;18.040;2023-04-07T14:11:24;2.07;;;1.77;;
50379;SDS011;37474;59.468;18.040;2023-04-07T14:13:57;2.80;;;1.58;;
50379;SDS011;37474;59.468;18.040;2023-04-07T14:16:24;5.20;;;2.03;;
50379;SDS011;37474;59.468;18.040;2023-04-07T14:18:52;3.13;;;2.30;;
50379;SDS011;37474;59.468;18.040;2023-04-07T14:21:21;4.53;;;2.10;;
50379;SDS011;37474;59.468;18.040;2023-04-07T14:23:50;3.93;;;1.97;;
50379;SDS011;37474;59.468;18.040;2023-04-07T14:26:20;2.30;;;1.87;;
50379;SDS011;37474;59.468;18.040;2023-04-07T14:28:52;2.65;;;1.88;;
50379;SDS011;37474;59.468;18.040;2023-04-07T14:31:20;2.35;;;1.60;;
50379;SDS011;37474;59.468;18.040;2023-04-07T14:33:48;4.60;;;1.80;;
50379;SDS011;37474;59.468;18.040;2023-04-07T14:36:20;1.95;;;1.35;;
50379;SDS011;37474;59.468;18.040;2023-04-07T14:38:47;2.20;;;1.70;;
50379;SDS011;37474;59.468;18.040;2023-04-07T14:41:17;4.67;;;2.70;;
50379;SDS011;37474;59.468;18.040;2023-04-07T14:43:47;4.30;;;1.90;;
50379;SDS011;37474;59.468;18.040;2023-04-07T14:46:20;2.93;;;1.53;;
50379;SDS011;37474;59.468;18.040;2023-04-07T14:48:49;2.30;;;1.10;;
50379;SDS011;37474;59.468;18.040;2023-04-07T14:51:18;3.23;;;1.70;;
50379;SDS011;37474;59.468;18.040;2023-04-07T14:53:46;3.10;;;1.30;;
50379;SDS011;37474;59.468;18.040;2023-04-07T14:56:21;2.00;;;1.60;;
50379;SDS011;37474;59.468;18.040;2023-04-07T14:58:50;2.00;;;1.30;;
50379;SDS011;37474;59.468;18.040;2023-04-07T15:01:18;5.70;;;1.83;;
50379;SDS011;37474;59.468;18.040;2023-04-07T15:03:46;2.13;;;1.50;;
50379;SDS011;37474;59.468;18.040;2023-04-07T15:06:14;3.07;;;1.40;;
50379;SDS011;37474;59.468;18.040;2023-04-07T15:08:42;1.93;;;1.50;;
50379;SDS011;37474;59.468;18.040;2023-04-07T15:11:11;2.17;;;1.57;;
50379;SDS011;37474;59.468;18.040;2023-04-07T15:13:41;2.70;;;1.48;;
50379;SDS011;37474;59.468;18.040;2023-04-07T15:16:09;3.90;;;1.83;;